Time;durP1;ratioP1;P1;durP2;ratioP2;P2;SDS_P1;SDS_P2;PMS_P1;PMS_P2;Temp;Humidity;BMP_temperature;BMP_pressure;BME280_temperature;BME280_humidity;BME280_pressure;Samples;Min_cycle;Max_cycle;Signal;HPM_P1;HPM_P2
2023/11/16 00:02:23;;;;;;;4.33;2.13;;;7.60;96.10;;;6.84;100.00;98105.44;4952278;29;20449;-72
2023/11/16 00:04:50;;;;;;;5.60;1.80;;;7.60;96.10;;;6.84;100.00;98104.59;4951492;28;20470;-74
2023/11/16 00:07:18;;;;;;;3.77;2.10;;;7.60;95.90;;;6.89;100.00;98113.75;4946285;29;21008;-74
2023/11/16 00:09:45;;;;;;;2.57;1.63;;;7.60;96.30;;;6.79;100.00;98119.41;4947916;28;20877;-74
2023/11/16 00:12:14;;;;;;;10.60;2.53;;;7.50;95.70;;;6.77;100.00;98121.47;4949002;28;20905;-72
2023/11/16 00:14:41;;;;;;;3.53;1.83;;;7.50;95.90;;;6.74;100.00;98121.81;4942482;29;20545;-72
2023/11/16 00:17:08;;;;;;;5.20;2.37;;;7.50;96.10;;;6.72;100.00;98118.50;4949720;29;20796;-72
2023/11/16 00:19:36;;;;;;;2.37;1.90;;;7.40;96.40;;;6.60;100.00;98123.53;4950496;28;20814;-72
2023/11/16 00:22:04;;;;;;;5.67;1.80;;;7.40;96.70;;;6.65;100.00;98122.97;4949875;28;20454;-72
2023/11/16 00:24:31;;;;;;;5.20;2.40;;;7.40;97.10;;;6.72;100.00;98123.03;4948343;28;20487;-73
2023/11/16 00:26:58;;;;;;;7.80;2.40;;;7.40;97.40;;;6.75;100.00;98122.66;4951080;28;20454;-72
2023/11/16 00:29:27;;;;;;;7.63;2.03;;;7.50;97.50;;;6.75;100.00;98120.81;4956604;28;20466;-71
2023/11/16 00:31:54;;;;;;;4.37;1.90;;;7.50;96.70;;;6.86;100.00;98124.88;4951120;28;20465;-72
2023/11/16 00:34:21;;;;;;;5.10;2.30;;;7.60;96.90;;;6.78;100.00;98120.44;4950595;28;20973;-72
2023/11/16 00:36:49;;;;;;;3.77;1.97;;;7.60;96.00;;;6.84;100.00;98118.88;4950074;28;20510;-72
2023/11/16 00:39:19;;;;;;;4.27;2.87;;;7.60;95.80;;;6.93;100.00;98119.56;4951622;28;20482;-73
2023/11/16 00:41:46;;;;;;;6.10;1.67;;;7.70;95.90;;;6.90;100.00;98117.25;4950220;28;20458;-74
2023/11/16 00:44:15;;;;;;;4.17;1.80;;;7.70;95.50;;;7.07;100.00;98113.34;4949063;28;20465;-73
2023/11/16 00:46:44;;;;;;;4.10;1.93;;;7.80;95.10;;;7.03;100.00;98125.47;4951280;28;20445;-74
2023/11/16 00:49:11;;;;;;;5.80;1.87;;;7.80;95.10;;;6.75;100.00;98048.31;4951093;28;20877;-71
2023/11/16 00:51:38;;;;;;;3.20;1.70;;;7.80;94.80;;;7.22;99.49;98107.06;4950563;28;20736;-73
2023/11/16 00:54:06;;;;;;;2.47;1.67;;;7.90;94.20;;;7.22;99.51;98101.69;4949854;28;20750;-73
2023/11/16 00:56:34;;;;;;;4.53;1.63;;;7.90;93.90;;;7.06;99.80;98105.44;4938316;28;20565;-73
2023/11/16 00:59:03;;;;;;;1.60;1.50;;;7.80;93.70;;;7.16;100.00;98099.75;4949361;29;20476;-73
2023/11/16 01:01:32;;;;;;;3.93;1.80;;;7.90;94.20;;;7.14;100.00;98109.88;4949885;28;20549;-74
2023/11/16 01:04:01;;;;;;;5.80;1.67;;;7.90;94.00;;;7.16;100.00;98107.81;4949705;29;20450;-74
2023/11/16 01:06:28;;;;;;;5.03;1.70;;;7.80;94.40;;;6.65;100.00;98015.56;4946305;28;20466;-72
2023/11/16 01:08:56;;;;;;;2.10;1.60;;;7.90;95.00;;;7.16;100.00;98102.44;4947600;28;20826;-73
2023/11/16 01:11:27;;;;;;;3.57;1.83;;;7.90;95.10;;;7.17;100.00;98096.88;4948916;28;20498;-74
2023/11/16 01:13:54;;;;;;;3.37;2.10;;;7.90;95.60;;;7.22;100.00;98099.00;4949820;28;20447;-74
2023/11/16 01:16:25;;;;;;;2.30;1.70;;;7.90;95.40;;;7.21;100.00;98106.22;4948178;28;20460;-73
2023/11/16 01:18:52;;;;;;;3.27;2.30;;;7.90;95.80;;;7.31;100.00;98111.28;4955195;28;20477;-73
2023/11/16 01:21:25;;;;;;;6.10;2.30;;;7.90;95.90;;;7.33;100.00;98113.78;4962956;29;20465;-72
2023/11/16 01:24:01;;;;;;;5.67;2.20;;;8.00;95.80;;;7.29;100.00;98094.50;4955957;29;20812;-74
2023/11/16 01:26:29;;;;;;;6.13;2.30;;;8.00;95.80;;;7.19;100.00;98097.53;4952371;28;20450;-74
2023/11/16 01:29:01;;;;;;;2.93;2.17;;;8.00;95.70;;;7.34;100.00;98104.69;4951570;28;20501;-72
2023/11/16 01:31:29;;;;;;;3.10;1.93;;;8.00;96.00;;;7.28;100.00;98100.06;4949857;28;20511;-74
2023/11/16 01:33:56;;;;;;;4.00;2.00;;;8.00;95.80;;;7.27;100.00;98101.94;4951321;28;20570;-72
2023/11/16 01:36:26;;;;;;;5.10;2.07;;;8.00;96.20;;;7.15;100.00;98096.25;4945101;28;20520;-73
2023/11/16 01:38:53;;;;;;;4.47;1.97;;;7.90;96.70;;;7.26;100.00;98097.59;4951773;28;20593;-72
2023/11/16 01:41:21;;;;;;;3.03;1.80;;;7.90;97.40;;;7.14;100.00;98091.06;4950186;28;20534;-72
2023/11/16 01:43:48;;;;;;;7.63;2.37;;;7.90;97.70;;;7.16;100.00;98105.97;4950719;28;20512;-71
2023/11/16 01:46:15;;;;;;;4.10;1.90;;;7.90;97.60;;;7.23;100.00;98106.84;4949575;28;20457;-70
2023/11/16 01:48:44;;;;;;;5.10;2.73;;;7.90;97.20;;;7.17;100.00;98104.09;4949572;28;20462;-71
2023/11/16 01:51:14;;;;;;;3.50;1.97;;;7.90;96.70;;;7.27;100.00;98103.78;4948774;28;20471;-72
2023/11/16 01:53:47;;;;;;;4.90;2.20;;;7.90;96.80;;;7.21;100.00;98111.59;4951326;28;20454;-71
2023/11/16 01:56:16;;;;;;;3.03;1.80;;;7.90;96.30;;;7.07;100.00;98096.38;4955691;28;20723;-74
2023/11/16 01:58:47;;;;;;;2.10;1.90;;;7.90;96.40;;;7.15;100.00;98106.16;4943967;29;20477;-72
2023/11/16 02:01:15;;;;;;;2.60;1.60;;;7.80;96.20;;;7.18;100.00;98103.06;4948052;28;20484;-73
2023/11/16 02:03:46;;;;;;;4.83;1.67;;;7.90;95.70;;;7.12;100.00;98096.63;4950171;28;20490;-72
2023/11/16 02:06:13;;;;;;;3.50;1.80;;;7.80;95.50;;;7.18;100.00;98098.56;4946134;28;20531;-74
2023/11/16 02:08:42;;;;;;;5.27;1.50;;;7.80;95.90;;;7.22;100.00;98086.38;4964836;28;20905;-72
2023/11/16 02:11:10;;;;;;;4.03;1.70;;;7.90;95.70;;;7.22;100.00;98096.31;4940817;28;20462;-73
2023/11/16 02:13:37;;;;;;;4.30;1.50;;;7.90;94.80;;;7.21;100.00;98100.03;4946283;28;20870;-73
2023/11/16 02:16:06;;;;;;;5.13;1.80;;;7.90;94.80;;;7.21;100.00;98089.28;4948905;28;20939;-73
2023/11/16 02:18:34;;;;;;;2.87;1.33;;;7.90;94.80;;;7.26;100.00;98094.91;4950036;29;20957;-72
2023/11/16 02:21:03;;;;;;;6.13;1.43;;;7.90;95.20;;;7.18;100.00;98105.78;4953547;28;20458;-73
2023/11/16 02:23:33;;;;;;;2.63;1.40;;;7.80;95.40;;;7.18;100.00;98090.50;4963311;28;20453;-71
2023/11/16 02:26:00;;;;;;;2.67;1.43;;;7.80;95.70;;;7.15;100.00;98090.03;4964496;28;20486;-73
2023/11/16 02:28:30;;;;;;;3.70;2.00;;;7.80;95.90;;;7.03;100.00;98103.16;4966752;28;20461;-73
2023/11/16 02:31:00;;;;;;;4.30;2.00;;;7.70;96.00;;;7.03;100.00;98101.28;4950186;28;20590;-72
2023/11/16 02:33:27;;;;;;;3.60;1.63;;;7.70;96.50;;;7.01;100.00;98100.63;4950145;28;20521;-72
2023/11/16 02:35:54;;;;;;;3.40;2.10;;;7.70;96.70;;;7.03;100.00;98085.16;4949666;28;20462;-73
2023/11/16 02:38:21;;;;;;;2.17;1.70;;;7.70;97.10;;;7.06;100.00;98094.69;4948808;28;20484;-73
2023/11/16 02:40:51;;;;;;;4.33;1.87;;;7.70;96.50;;;7.10;100.00;98098.66;4949542;29;20540;-74
2023/11/16 02:43:19;;;;;;;4.27;2.00;;;7.70;96.90;;;7.06;100.00;98090.19;4947445;28;20450;-73
2023/11/16 02:45:46;;;;;;;2.10;1.90;;;7.70;97.00;;;7.12;100.00;98095.78;4946256;28;20522;-72
2023/11/16 02:48:15;;;;;;;3.27;2.30;;;7.80;97.30;;;7.09;100.00;98097.84;4948723;28;20465;-73
2023/11/16 02:50:42;;;;;;;5.80;2.60;;;7.80;96.90;;;7.06;100.00;98098.22;4933552;29;20447;-74
2023/11/16 02:53:10;;;;;;;4.63;2.70;;;7.70;96.90;;;7.09;100.00;98095.16;4946459;28;20940;-73
2023/11/16 02:55:37;;;;;;;3.93;2.70;;;7.70;97.80;;;7.07;100.00;98083.78;4944742;28;20493;-73
2023/11/16 02:58:06;;;;;;;6.30;2.43;;;7.70;98.00;;;7.08;100.00;98085.44;4948728;28;20842;-74
2023/11/16 03:00:34;;;;;;;5.30;2.80;;;7.80;98.40;;;7.02;100.00;98091.56;4946295;28;20544;-72
2023/11/16 03:03:02;;;;;;;13.20;2.80;;;7.70;97.90;;;7.02;100.00;98086.19;4948406;28;20536;-73
2023/11/16 03:05:29;;;;;;;3.73;2.60;;;7.70;98.40;;;6.98;100.00;98084.09;4946929;28;20447;-72
2023/11/16 03:07:56;;;;;;;4.90;2.67;;;7.70;99.00;;;6.97;100.00;98083.25;4947095;28;20532;-72
2023/11/16 03:10:24;;;;;;;6.70;3.70;;;7.70;98.60;;;7.00;100.00;98077.50;4944170;28;20446;-73
2023/11/16 03:12:52;;;;;;;5.73;2.60;;;7.70;99.10;;;7.08;100.00;98079.22;4942350;28;20553;-71
2023/11/16 03:15:21;;;;;;;6.73;3.47;;;7.80;98.60;;;7.05;100.00;98082.28;4945491;28;20461;-72
2023/11/16 03:17:48;;;;;;;6.67;3.77;;;7.70;98.00;;;6.88;100.00;98074.47;4947384;28;20541;-72
2023/11/16 03:20:16;;;;;;;4.63;2.77;;;7.70;98.10;;;7.13;100.00;98067.91;4948079;29;20489;-73
2023/11/16 03:22:44;;;;;;;5.70;2.80;;;7.70;98.80;;;7.11;100.00;98078.00;4941002;28;20462;-71
2023/11/16 03:25:11;;;;;;;5.17;2.77;;;7.70;98.50;;;7.09;100.00;98076.34;4944988;28;20521;-71
2023/11/16 03:27:42;;;;;;;6.30;3.00;;;7.70;98.20;;;7.06;100.00;98076.75;4950203;29;20498;-72
2023/11/16 03:30:09;;;;;;;5.13;2.53;;;7.70;98.10;;;7.15;100.00;98071.22;4945827;28;20450;-71
2023/11/16 03:32:38;;;;;;;6.37;2.97;;;7.70;98.30;;;7.09;100.00;98081.72;4946004;28;20528;-71
2023/11/16 03:35:06;;;;;;;6.63;2.90;;;7.80;97.50;;;7.15;100.00;98081.97;4947783;28;20514;-72
2023/11/16 03:37:33;;;;;;;5.90;3.33;;;7.80;97.80;;;7.02;100.00;98086.19;4949238;28;20970;-72
2023/11/16 03:40:02;;;;;;;4.57;3.10;;;7.80;97.40;;;7.12;100.00;98083.19;4948402;28;20568;-71
2023/11/16 03:42:32;;;;;;;11.33;3.43;;;7.70;97.50;;;7.07;100.00;98088.31;4951127;28;20454;-73
2023/11/16 03:44:59;;;;;;;5.13;3.00;;;7.80;97.20;;;7.16;100.00;98091.69;4941409;28;20514;-71
2023/11/16 03:47:28;;;;;;;3.30;2.50;;;7.80;97.00;;;7.15;100.00;98100.78;4963566;28;20792;-71
2023/11/16 03:49:58;;;;;;;4.30;2.37;;;7.80;96.60;;;7.14;100.00;98093.75;4950528;29;20466;-73
2023/11/16 03:52:25;;;;;;;3.30;2.40;;;7.80;96.30;;;7.15;100.00;98090.03;4949293;28;20457;-74
2023/11/16 03:54:53;;;;;;;2.97;2.73;;;7.90;96.00;;;7.07;100.00;98093.69;4948339;28;20553;-73
2023/11/16 03:57:20;;;;;;;5.57;3.50;;;7.90;95.90;;;7.14;100.00;98093.75;4942567;28;20796;-72
2023/11/16 03:59:47;;;;;;;3.73;3.10;;;7.90;95.60;;;7.09;100.00;98084.41;4949442;28;20480;-72
2023/11/16 04:02:14;;;;;;;5.23;3.00;;;7.90;95.60;;;7.01;100.00;98071.09;4950845;28;20466;-72
2023/11/16 04:04:42;;;;;;;4.13;2.30;;;7.80;94.90;;;6.92;100.00;98070.38;4943888;29;20454;-72
2023/11/16 04:07:11;;;;;;;3.43;2.60;;;7.70;94.90;;;7.05;100.00;98058.97;4949211;28;20528;-73
2023/11/16 04:09:38;;;;;;;4.77;2.70;;;7.80;95.10;;;6.98;100.00;98052.66;4950300;28;20468;-72
2023/11/16 04:12:07;;;;;;;3.40;2.50;;;7.70;95.10;;;7.03;100.00;98069.03;4949036;28;20450;-73
2023/11/16 04:14:34;;;;;;;6.10;3.10;;;7.70;95.30;;;6.99;100.00;98065.09;4954487;28;20461;-73
2023/11/16 04:17:03;;;;;;;3.30;2.60;;;7.70;95.30;;;6.99;100.00;98072.31;4948395;28;20494;-71
2023/11/16 04:19:30;;;;;;;4.23;2.90;;;7.60;95.10;;;6.45;100.00;97999.25;4948637;28;20466;-72
2023/11/16 04:21:59;;;;;;;4.97;2.93;;;7.60;95.40;;;6.78;100.00;98073.94;4951010;28;20444;-71
2023/11/16 04:24:28;;;;;;;7.20;3.00;;;7.50;95.50;;;6.60;100.00;98077.88;4947887;29;20454;-72
2023/11/16 04:26:56;;;;;;;5.77;2.40;;;7.50;95.90;;;6.35;100.00;98080.88;4948366;28;20461;-72
2023/11/16 04:29:24;;;;;;;4.33;2.90;;;7.40;96.00;;;6.40;100.00;98064.22;4951045;28;20486;-73
2023/11/16 04:31:51;;;;;;;5.70;3.70;;;7.20;96.30;;;6.23;100.00;98060.91;4950378;28;20553;-70
2023/11/16 04:34:18;;;;;;;6.07;2.63;;;7.10;96.70;;;6.03;100.00;98056.09;4950936;28;20462;-71
2023/11/16 04:36:46;;;;;;;5.90;3.10;;;7.10;97.00;;;5.88;100.00;98053.41;4948362;28;20811;-73
2023/11/16 04:39:14;;;;;;;9.70;2.73;;;6.90;97.40;;;6.11;100.00;98052.50;4949943;28;21036;-73
2023/11/16 04:41:45;;;;;;;7.93;2.73;;;6.90;98.20;;;6.08;100.00;98059.06;4950034;28;20455;-72
2023/11/16 04:44:12;;;;;;;7.73;3.43;;;6.80;98.80;;;5.99;100.00;98051.25;4965541;28;20453;-75
2023/11/16 04:46:47;;;;;;;7.30;3.13;;;6.70;99.10;;;5.94;100.00;98058.00;4950372;28;20931;-73
2023/11/16 04:49:14;;;;;;;5.43;2.40;;;6.60;99.90;;;5.95;100.00;98064.22;4947188;29;20500;-72
2023/11/16 04:51:41;;;;;;;3.20;2.77;;;6.60;99.90;;;5.93;100.00;98069.75;4951358;28;20469;-72
2023/11/16 04:54:09;;;;;;;6.50;3.33;;;6.50;99.90;;;5.90;100.00;98064.75;4944588;29;20851;-73
2023/11/16 04:56:37;;;;;;;4.70;3.13;;;6.60;99.90;;;5.71;100.00;98058.09;4944125;28;20469;-72
2023/11/16 04:59:08;;;;;;;6.90;2.87;;;6.60;99.90;;;5.55;100.00;98052.88;4948032;29;20474;-73
2023/11/16 05:01:35;;;;;;;5.97;2.27;;;6.50;99.90;;;5.53;100.00;98050.38;4950248;28;20471;-72
2023/11/16 05:04:03;;;;;;;3.03;2.47;;;6.50;99.90;;;5.52;100.00;98044.19;4951116;28;20556;-72
2023/11/16 05:06:30;;;;;;;5.03;2.63;;;6.50;99.90;;;5.63;100.00;98047.47;4948847;28;20557;-72
2023/11/16 05:08:58;;;;;;;4.30;2.30;;;6.50;99.90;;;5.51;100.00;98041.69;4955611;28;20478;-72
2023/11/16 05:11:26;;;;;;;3.80;2.00;;;6.40;99.90;;;5.63;100.00;98039.41;4962741;28;20457;-72
2023/11/16 05:13:53;;;;;;;3.03;1.63;;;6.40;99.90;;;5.53;100.00;98047.69;4970080;28;20454;-71
2023/11/16 05:16:26;;;;;;;3.07;1.80;;;6.30;99.30;;;5.62;100.00;98049.28;4966352;28;20497;-71
2023/11/16 05:18:53;;;;;;;6.20;1.97;;;6.30;99.60;;;5.59;100.00;98043.47;4959272;28;20461;-71
2023/11/16 05:21:21;;;;;;;8.03;2.37;;;6.30;98.70;;;5.44;100.00;98051.50;4955047;28;20462;-70
2023/11/16 05:23:49;;;;;;;4.27;1.73;;;6.20;98.10;;;5.41;100.00;98057.22;4951503;28;20521;-72
2023/11/16 05:26:16;;;;;;;8.70;2.30;;;6.10;98.30;;;5.19;100.00;98046.34;4948916;28;20545;-71
2023/11/16 05:28:44;;;;;;;7.17;2.53;;;6.20;98.80;;;5.11;100.00;98041.88;4943504;28;20469;-71
2023/11/16 05:31:11;;;;;;;2.73;1.90;;;6.20;98.60;;;5.08;100.00;98044.91;4963224;28;20582;-71
2023/11/16 05:33:39;;;;;;;2.50;1.53;;;6.10;98.40;;;5.05;100.00;98048.78;4950920;28;20520;-72
2023/11/16 05:36:08;;;;;;;4.47;1.80;;;6.10;98.60;;;5.06;100.00;98055.78;4949507;28;20468;-73
2023/11/16 05:38:35;;;;;;;4.50;1.63;;;6.10;99.00;;;5.07;100.00;98027.19;4951191;29;20992;-71
2023/11/16 05:41:03;;;;;;;8.33;1.90;;;6.10;99.20;;;5.23;100.00;98037.75;4950395;28;20489;-72
2023/11/16 05:43:31;;;;;;;4.77;2.37;;;6.20;99.40;;;5.41;100.00;98030.41;4953187;28;20516;-73
2023/11/16 05:45:58;;;;;;;3.20;2.10;;;6.20;98.30;;;5.37;100.00;98038.78;4936441;29;20452;-72
2023/11/16 05:48:25;;;;;;;4.80;3.00;;;6.20;98.30;;;5.48;100.00;98036.69;4950921;28;20978;-71
2023/11/16 05:50:55;;;;;;;6.20;2.40;;;6.20;98.20;;;4.91;100.00;97954.00;4951583;28;20466;-71
2023/11/16 05:53:22;;;;;;;10.73;2.67;;;6.30;97.70;;;5.43;100.00;98039.91;4950897;28;20493;-70
2023/11/16 05:55:52;;;;;;;6.00;2.37;;;6.30;97.70;;;5.38;100.00;98023.56;4946971;28;21267;-70
2023/11/16 05:58:19;;;;;;;5.20;2.90;;;6.30;97.50;;;4.81;100.00;97932.84;4947996;28;20449;-69
2023/11/16 06:00:47;;;;;;;4.30;2.10;;;6.20;97.70;;;5.46;100.00;98030.69;4942367;28;20564;-69
2023/11/16 06:03:14;;;;;;;4.57;2.20;;;6.20;97.60;;;5.41;100.00;98033.09;4948635;28;20469;-70
2023/11/16 06:05:41;;;;;;;9.57;2.37;;;6.20;97.60;;;5.38;100.00;98020.88;4946880;28;20453;-69
2023/11/16 06:08:10;;;;;;;3.13;2.10;;;6.20;97.70;;;5.41;100.00;98017.03;4947131;29;21085;-68
2023/11/16 06:10:37;;;;;;;2.93;1.80;;;6.20;97.60;;;5.39;100.00;98014.50;4945406;28;20457;-68
2023/11/16 06:13:04;;;;;;;6.67;2.37;;;6.20;97.30;;;5.63;100.00;98013.44;4944503;28;20465;-71
2023/11/16 06:15:34;;;;;;;6.47;2.77;;;6.30;98.20;;;5.65;100.00;98010.56;4942987;28;20454;-70
2023/11/16 06:18:02;;;;;;;2.67;1.80;;;6.40;98.40;;;5.63;100.00;98008.06;4948802;28;20454;-71
2023/11/16 06:20:30;;;;;;;4.13;2.00;;;6.40;97.80;;;5.79;100.00;98011.59;4944423;28;20480;-69
2023/11/16 06:22:57;;;;;;;6.60;2.87;;;6.50;98.00;;;5.82;100.00;98016.56;4945560;28;20461;-71
2023/11/16 06:25:25;;;;;;;3.67;2.40;;;6.50;97.90;;;5.88;100.00;98021.22;4943631;28;20461;-71
2023/11/16 06:27:53;;;;;;;6.30;2.37;;;6.50;97.80;;;6.01;100.00;98009.84;4940207;28;20521;-73
2023/11/16 06:30:20;;;;;;;6.37;2.50;;;6.70;98.10;;;5.72;100.00;97994.59;4945013;29;20511;-73
2023/11/16 06:32:47;;;;;;;8.43;2.73;;;6.60;96.00;;;5.64;100.00;97985.59;4944595;28;20485;-71
2023/11/16 06:35:15;;;;;;;7.17;2.40;;;6.50;95.90;;;5.64;100.00;97968.72;4934312;28;20465;-72
2023/11/16 06:37:43;;;;;;;4.20;2.30;;;6.50;95.90;;;5.67;100.00;97977.19;4948639;28;20469;-72
2023/11/16 06:40:11;;;;;;;6.67;2.77;;;6.40;96.00;;;5.80;100.00;97992.66;4940901;28;20480;-72
2023/11/16 06:42:40;;;;;;;6.00;2.40;;;6.50;96.40;;;5.97;100.00;98000.50;4946173;28;20500;-73
2023/11/16 06:45:09;;;;;;;6.90;2.30;;;6.70;96.50;;;5.85;100.00;98012.69;4946191;28;20884;-70
2023/11/16 06:47:39;;;;;;;5.50;2.40;;;6.70;95.60;;;6.06;100.00;98011.97;4946658;28;20500;-68
2023/11/16 06:50:08;;;;;;;6.17;2.23;;;6.80;95.30;;;6.00;100.00;98001.97;4941803;28;20947;-70
2023/11/16 06:52:36;;;;;;;6.37;2.07;;;6.80;94.60;;;6.05;100.00;97988.88;4943481;28;20457;-73
2023/11/16 06:55:04;;;;;;;6.47;2.70;;;6.90;94.70;;;6.20;100.00;97997.72;4943514;28;20849;-71
2023/11/16 06:57:33;;;;;;;4.30;2.20;;;6.90;94.60;;;6.22;100.00;97987.63;4947806;28;20459;-73
2023/11/16 07:00:08;;;;;;;8.73;2.50;;;7.00;94.30;;;6.39;100.00;97987.41;4936123;28;20486;-72
2023/11/16 07:02:35;;;;;;;4.33;2.23;;;7.10;94.60;;;6.44;99.27;97976.09;4941667;28;21051;-72
2023/11/16 07:05:03;;;;;;;2.97;1.70;;;7.20;93.40;;;6.54;98.72;97978.47;4943333;28;20450;-71
2023/11/16 07:07:30;;;;;;;4.00;2.13;;;7.30;93.10;;;6.60;99.19;97985.78;4942380;28;20477;-71
2023/11/16 07:09:57;;;;;;;3.90;2.07;;;7.30;93.40;;;6.44;98.04;97984.97;4950236;28;20454;-72
2023/11/16 07:12:26;;;;;;;4.03;2.23;;;7.30;92.30;;;6.48;99.50;97983.59;4949418;28;20470;-72
2023/11/16 07:14:54;;;;;;;5.50;2.57;;;7.20;92.80;;;6.75;97.85;97978.50;4946777;28;20473;-72
2023/11/16 07:17:22;;;;;;;3.30;2.30;;;7.40;92.50;;;6.69;96.45;97981.94;4945918;28;20547;-72
2023/11/16 07:19:49;;;;;;;2.50;1.93;;;7.50;91.50;;;6.44;96.90;97981.47;4942218;28;20489;-72
2023/11/16 07:22:18;;;;;;;3.90;2.53;;;7.40;91.40;;;6.44;97.18;97982.28;4947620;28;20465;-74
2023/11/16 07:24:47;;;;;;;5.23;2.27;;;7.30;91.40;;;6.68;97.95;97980.28;4945573;28;20466;-73
2023/11/16 07:27:15;;;;;;;2.57;2.17;;;7.40;92.20;;;6.55;95.87;97980.13;4946404;28;20513;-74
2023/11/16 07:29:43;;;;;;;4.60;2.60;;;7.40;90.90;;;6.75;95.41;97986.56;4944843;28;20555;-73
2023/11/16 07:32:11;;;;;;;5.67;1.87;;;7.50;91.00;;;7.06;94.05;97995.28;4929087;28;20569;-73
2023/11/16 07:34:41;;;;;;;5.63;2.53;;;7.70;91.20;;;6.94;94.02;97998.50;4949010;28;20472;-75
2023/11/16 07:37:09;;;;;;;3.13;2.07;;;7.70;90.70;;;7.28;93.67;97982.66;4946184;28;20482;-71
2023/11/16 07:39:37;;;;;;;4.40;2.13;;;7.80;90.80;;;7.54;91.85;97986.56;4942069;28;20502;-73
2023/11/16 07:42:05;;;;;;;2.93;2.07;;;8.10;90.50;;;7.48;90.45;97990.03;4945106;28;20553;-76
2023/11/16 07:44:32;;;;;;;5.07;2.10;;;8.10;89.70;;;7.72;90.42;97990.63;4941906;28;20741;-73
2023/11/16 07:46:59;;;;;;;6.80;2.40;;;8.30;90.10;;;8.07;90.38;97990.59;4942940;28;20939;-73
2023/11/16 07:49:27;;;;;;;5.53;2.47;;;8.40;90.20;;;8.04;88.43;97996.38;4945103;28;20887;-74
2023/11/16 07:51:57;;;;;;;2.93;2.20;;;8.50;88.70;;;8.02;88.16;97993.88;4959773;28;20536;-75
2023/11/16 07:54:25;;;;;;;4.20;2.73;;;8.60;88.40;;;8.28;88.90;97992.34;4945365;28;20470;-72
2023/11/16 07:56:55;;;;;;;4.30;2.37;;;8.80;89.10;;;8.07;88.24;97990.59;4943930;28;20469;-73
2023/11/16 07:59:30;;;;;;;3.10;2.53;;;8.60;88.10;;;7.85;88.08;97981.78;4910746;28;1082572;-74
2023/11/16 08:02:00;;;;;;;4.97;2.03;;;8.50;87.50;;;7.21;90.49;97982.59;4942603;28;20454;-74
2023/11/16 08:04:27;;;;;;;6.50;2.30;;;8.20;87.50;;;7.70;89.86;97976.53;4947439;28;20819;-75
2023/11/16 08:06:56;;;;;;;3.90;2.47;;;8.20;88.90;;;7.64;87.85;97970.91;4944881;28;20498;-77
2023/11/16 08:09:26;;;;;;;3.43;2.90;;;8.30;87.70;;;8.10;88.05;97973.22;4942800;28;20466;-75
2023/11/16 08:11:53;;;;;;;5.47;2.97;;;8.50;88.50;;;8.20;86.33;97955.66;4947261;28;20450;-79
2023/11/16 08:14:24;;;;;;;4.93;2.40;;;8.70;87.80;;;8.38;86.72;97964.22;4947537;28;20471;-75
2023/11/16 08:16:55;;;;;;;6.20;3.33;;;8.80;87.20;;;7.65;87.70;97953.72;4945738;28;20975;-75
2023/11/16 08:19:22;;;;;;;4.60;2.67;;;8.60;86.60;;;7.64;90.09;97952.06;4946754;28;20463;-76
2023/11/16 08:21:55;;;;;;;4.40;2.40;;;8.40;87.70;;;7.52;90.67;97945.63;4954082;28;20818;-76
2023/11/16 08:24:24;;;;;;;4.93;3.23;;;8.30;88.00;;;7.50;90.48;97936.88;4948668;28;20462;-71
2023/11/16 08:26:51;;;;;;;3.80;2.63;;;8.30;88.40;;;7.47;90.76;97926.53;4948219;28;20813;-72
2023/11/16 08:29:19;;;;;;;6.63;3.00;;;8.30;88.50;;;7.48;91.32;97920.97;4947888;28;20462;-76
2023/11/16 08:31:52;;;;;;;4.30;2.70;;;8.30;88.60;;;7.96;89.84;97926.56;4944911;29;20880;-72
2023/11/16 08:34:19;;;;;;;7.10;3.87;;;8.50;88.70;;;7.86;88.88;97925.09;4949096;28;20470;-68
2023/11/16 08:36:47;;;;;;;7.10;2.87;;;8.60;87.70;;;8.23;86.88;97914.06;4948388;28;20463;-76
2023/11/16 08:39:15;;;;;;;6.70;3.93;;;8.80;87.80;;;8.10;88.62;97914.81;4946643;28;20462;-75
2023/11/16 08:41:44;;;;;;;5.23;3.00;;;8.80;87.40;;;8.05;88.17;97920.84;4942784;28;20985;-74
2023/11/16 08:44:11;;;;;;;7.47;2.87;;;8.80;87.30;;;7.87;88.93;97925.91;4947990;28;20540;-74
2023/11/16 08:46:41;;;;;;;5.30;2.50;;;8.80;87.30;;;7.88;88.71;97917.66;4959619;28;20458;-74
2023/11/16 08:49:09;;;;;;;2.87;2.50;;;8.90;86.80;;;8.30;86.56;97919.47;4946656;28;20450;-73
2023/11/16 08:51:38;;;;;;;3.50;2.30;;;9.10;86.60;;;8.10;87.01;97908.63;4948258;28;20556;-74
2023/11/16 08:54:07;;;;;;;6.23;2.63;;;9.20;86.10;;;8.06;87.02;97900.13;4952264;28;20542;-73
2023/11/16 08:56:35;;;;;;;5.17;3.07;;;9.10;86.20;;;8.21;87.04;97905.34;4953703;28;20462;-72
2023/11/16 08:59:07;;;;;;;6.40;2.40;;;9.20;86.10;;;8.39;85.16;97901.25;4962813;28;20454;-70
2023/11/16 09:01:37;;;;;;;2.40;1.90;;;9.30;85.40;;;7.78;87.12;97852.63;4968659;28;20484;-68
2023/11/16 09:04:09;;;;;;;6.27;2.83;;;9.00;85.80;;;8.16;86.96;97886.28;4972877;28;20506;-68
2023/11/16 09:06:36;;;;;;;4.53;2.70;;;9.00;85.90;;;8.21;84.51;97892.72;4970915;28;20465;-73
2023/11/16 09:09:09;;;;;;;6.57;3.13;;;9.10;85.40;;;8.53;84.34;97885.97;4948856;28;20934;-75
2023/11/16 09:11:36;;;;;;;3.77;2.40;;;9.30;85.40;;;8.63;82.88;97873.75;4957817;28;20827;-75
2023/11/16 09:14:05;;;;;;;5.30;2.73;;;9.40;84.90;;;8.65;83.31;97868.16;4941983;28;20607;-73
2023/11/16 09:16:33;;;;;;;5.80;2.40;;;9.50;84.90;;;8.88;80.19;97856.16;4950039;28;20458;-73
2023/11/16 09:19:00;;;;;;;3.57;2.30;;;9.70;83.90;;;9.25;78.22;97851.13;4963412;28;20454;-74
2023/11/16 09:21:29;;;;;;;4.23;2.23;;;10.00;82.10;;;9.20;79.16;97842.84;4947473;28;20676;-73
2023/11/16 09:23:56;;;;;;;5.10;2.40;;;10.10;81.70;;;9.38;78.85;97846.72;4964878;28;20955;-73
2023/11/16 09:26:24;;;;;;;6.80;3.10;;;10.20;81.70;;;9.36;79.98;97844.25;4947579;28;20450;-74
2023/11/16 09:28:53;;;;;;;6.07;2.20;;;10.20;81.80;;;9.62;75.83;97843.31;4946930;28;20951;-73
2023/11/16 09:31:23;;;;;;;3.93;3.07;;;10.40;80.40;;;9.63;75.57;97853.09;4939620;28;20480;-71
2023/11/16 09:33:51;;;;;;;4.87;2.30;;;10.60;79.70;;;9.57;76.31;97848.53;4948914;28;20484;-72
2023/11/16 09:36:19;;;;;;;2.90;1.80;;;10.60;79.80;;;9.55;76.97;97845.22;4948768;28;20508;-74
2023/11/16 09:38:46;;;;;;;4.43;2.13;;;10.60;79.90;;;9.67;76.45;97836.47;4947198;28;20537;-72
2023/11/16 09:41:23;;;;;;;4.30;2.10;;;10.50;80.00;;;9.74;75.75;97839.94;4945879;28;20569;-75
2023/11/16 09:43:55;;;;;;;5.37;1.77;;;10.60;79.30;;;9.49;76.17;97832.59;4945672;28;20484;-74
2023/11/16 09:46:26;;;;;;;8.10;1.70;;;10.50;79.20;;;9.52;75.67;97840.25;4948546;28;20465;-76
2023/11/16 09:48:54;;;;;;;4.90;2.30;;;10.50;79.10;;;9.70;76.11;97831.44;4948221;28;20944;-72
2023/11/16 09:51:24;;;;;;;3.23;2.00;;;10.50;79.50;;;10.02;74.89;97822.59;4947649;28;20442;-76
2023/11/16 09:53:51;;;;;;;5.13;2.33;;;10.70;79.50;;;10.35;73.82;97826.94;4945998;28;20560;-70
2023/11/16 09:56:27;;;;;;;4.27;2.27;;;11.00;79.00;;;10.14;74.67;97822.72;4944033;29;20473;-72
2023/11/16 09:59:02;;;;;;;4.63;1.93;;;11.10;78.80;;;10.20;71.82;97803.78;4942745;28;20461;-73
2023/11/16 10:01:31;;;;;;;5.23;2.20;;;11.10;77.50;;;10.35;71.66;97803.47;4950653;28;20476;-73
2023/11/16 10:03:59;;;;;;;6.20;2.10;;;11.20;77.50;;;10.26;71.67;97802.06;4937893;28;20454;-73
2023/11/16 10:06:28;;;;;;;2.23;1.50;;;11.20;76.90;;;9.86;71.75;97803.16;4952784;28;20449;-74
2023/11/16 10:08:56;;;;;;;3.70;2.20;;;11.00;76.30;;;10.11;71.35;97799.69;4944425;28;20517;-76
2023/11/16 10:11:24;;;;;;;4.50;1.83;;;11.00;76.60;;;10.15;70.66;97800.06;4944961;28;20454;-74
2023/11/16 10:13:54;;;;;;;4.23;1.93;;;11.10;76.00;;;10.07;70.08;97782.25;4952440;28;20458;-70
2023/11/16 10:16:26;;;;;;;3.23;1.83;;;11.00;75.60;;;10.11;70.28;97791.59;4949193;28;20549;-75
2023/11/16 10:19:04;;;;;;;3.53;1.77;;;11.00;75.30;;;9.91;70.46;97794.41;4953762;28;21025;-75
2023/11/16 10:21:31;;;;;;;3.90;1.83;;;10.80;75.20;;;10.00;70.60;97786.91;4958488;28;20474;-74
2023/11/16 10:23:59;;;;;;;6.93;1.90;;;10.90;75.50;;;9.96;69.74;97775.69;4949502;28;20460;-70
2023/11/16 10:26:28;;;;;;;4.70;1.87;;;10.90;75.00;;;10.42;67.52;97768.34;4943880;28;20960;-75
2023/11/16 10:28:56;;;;;;;6.07;2.30;;;11.10;74.00;;;10.55;67.23;97763.88;4942017;28;20573;-75
2023/11/16 10:31:25;;;;;;;5.37;2.30;;;11.20;74.00;;;11.02;66.82;97756.13;4948596;28;20984;-75
2023/11/16 10:33:53;;;;;;;3.17;1.80;;;11.50;74.30;;;10.86;67.81;97759.44;4947771;28;20458;-75